Time;durP1;ratioP1;P1;durP2;ratioP2;P2;SDS_P1;SDS_P2;PMS_P1;PMS_P2;Temp;Humidity;BMP_temperature;BMP_pressure;BME280_temperature;BME280_humidity;BME280_pressure;Samples;Min_cycle;Max_cycle;Signal;HPM_P1;HPM_P2
2022/06/11 00:01:28;;;;;;;12.45;10.65;;;;;;;18.77;74.90;94400.56;5034032;28;20033;-84
2022/06/11 00:04:02;;;;;;;22.50;10.13;;;;;;;18.76;75.10;94401.63;5034769;28;20079;-84
2022/06/11 00:06:29;;;;;;;8.07;7.18;;;;;;;18.76;73.77;94396.38;5002768;28;20030;-84
2022/06/11 00:08:54;;;;;;;8.15;7.35;;;;;;;18.72;72.81;94396.16;5020034;28;20064;-84
2022/06/11 00:11:20;;;;;;;8.82;6.72;;;;;;;18.69;71.76;94401.22;5025317;28;20073;-83
2022/06/11 00:13:46;;;;;;;8.50;7.55;;;;;;;18.69;72.68;94395.94;5054313;28;20041;-85
2022/06/11 00:16:12;;;;;;;8.38;7.57;;;;;;;18.71;72.77;94399.06;5048881;28;20116;-85
2022/06/11 00:18:37;;;;;;;10.32;7.30;;;;;;;18.71;72.92;94394.63;4989375;28;20033;-86
2022/06/11 00:21:04;;;;;;;8.77;7.38;;;;;;;18.75;73.07;94394.81;5031744;28;20033;-86
2022/06/11 00:23:29;;;;;;;8.30;7.50;;;;;;;18.72;72.90;94390.91;4997533;28;20064;-86
2022/06/11 00:28:24;;;;;;;9.82;7.82;;;;;;;18.69;73.27;94390.69;5067898;22;20037;-87
2022/06/11 00:30:49;;;;;;;10.20;8.73;;;;;;;18.71;73.50;94391.16;5054938;28;20037;-85
2022/06/11 00:33:15;;;;;;;10.00;8.40;;;;;;;18.75;73.83;94405.34;5036447;28;20033;-85
2022/06/11 00:35:43;;;;;;;10.18;8.70;;;;;;;18.73;73.42;94391.69;5020055;28;20044;-86
2022/06/11 00:38:08;;;;;;;9.50;8.57;;;;;;;18.74;73.36;94398.50;5003429;28;20472;-86
2022/06/11 00:40:36;;;;;;;10.57;8.15;;;;;;;18.72;73.41;94400.66;5003799;28;20064;-86
2022/06/11 00:43:02;;;;;;;9.80;8.70;;;;;;;18.69;73.92;94401.22;5002595;28;20037;-86
2022/06/11 00:45:35;;;;;;;8.80;8.00;;;;;;;18.59;74.11;94408.22;5003567;28;20034;-85
2022/06/11 00:48:14;;;;;;;10.07;9.07;;;;;;;18.59;74.38;94402.97;5003716;28;20701;-86
2022/06/11 00:50:44;;;;;;;9.35;8.55;;;;;;;18.60;74.55;94407.16;5021141;28;20459;-85
2022/06/11 00:53:22;;;;;;;9.00;8.20;;;;;;;18.56;74.42;94397.50;5018150;28;20041;-87
2022/06/11 00:55:48;;;;;;;13.82;8.32;;;;;;;18.59;74.62;94396.91;5003381;28;20033;-86
2022/06/11 00:58:23;;;;;;;11.15;8.80;;;;;;;18.64;74.96;94399.47;4999208;28;20040;-87
2022/06/11 01:00:52;;;;;;;15.15;8.38;;;;;;;18.65;75.14;94400.25;5001436;28;20444;-87
2022/06/11 01:03:20;;;;;;;10.90;8.88;;;;;;;18.54;75.36;94397.75;4998510;28;20030;-86
2022/06/11 01:06:00;;;;;;;9.88;8.88;;;;;;;18.45;75.51;94404.78;5018319;28;20052;-87
2022/06/11 01:08:45;;;;;;;11.13;10.05;;;;;;;18.19;76.74;94401.03;5010383;28;20057;-87
2022/06/11 01:11:23;;;;;;;18.13;10.65;;;;;;;18.11;78.06;94399.84;5022017;28;20041;-87
2022/06/11 01:14:13;;;;;;;11.63;10.32;;;;;;;17.92;78.98;94405.16;5019369;28;20040;-86
2022/06/11 01:16:48;;;;;;;11.77;10.63;;;;;;;17.92;79.35;94397.25;5033390;28;20033;-86
2022/06/11 01:19:26;;;;;;;12.75;10.55;;;;;;;17.91;79.88;94398.34;5018125;28;20489;-87
2022/06/11 01:22:09;;;;;;;15.50;10.98;;;;;;;17.87;79.49;94402.59;5029548;28;20043;-88
2022/06/11 01:24:58;;;;;;;12.68;10.27;;;;;;;17.75;80.06;94402.25;5013913;28;20032;-86
2022/06/11 01:27:48;;;;;;;12.73;11.57;;;;;;;17.58;81.04;94404.59;4997998;28;20044;-87
2022/06/11 01:30:29;;;;;;;12.77;11.32;;;;;;;17.53;81.07;94408.06;5030135;28;20082;-86
2022/06/11 01:33:03;;;;;;;12.40;11.15;;;;;;;17.45;81.49;94410.56;4997775;28;20040;-89
2022/06/11 01:35:45;;;;;;;12.85;11.65;;;;;;;17.40;82.20;94409.53;5005920;28;20041;-87
2022/06/11 01:38:32;;;;;;;12.38;11.00;;;;;;;17.42;82.42;94408.50;5013496;28;20048;-87
2022/06/11 01:41:57;;;;;;;13.70;10.85;;;;;;;17.51;82.16;94415.44;5030148;28;20505;-86
2022/06/11 01:44:25;;;;;;;15.85;12.02;;;;;;;17.46;82.25;94412.13;5002971;28;20033;-86
2022/06/11 01:50:42;;;;;;;13.07;11.77;;;;;;;17.47;82.17;94408.41;5020115;28;20033;-86
2022/06/11 01:53:46;;;;;;;13.77;12.27;;;;;;;17.44;82.40;94406.38;4998596;28;20033;-87
2022/06/11 01:56:48;;;;;;;14.07;11.50;;;;;;;17.47;82.46;94414.47;5029942;28;20088;-87
2022/06/11 02:00:00;;;;;;;16.70;11.60;;;;;;;17.46;82.44;94412.13;5011986;28;20041;-86
2022/06/11 02:04:07;;;;;;;18.73;12.70;;;;;;;17.27;83.28;94412.91;5030590;28;20041;-86
2022/06/11 02:06:11;;;;;;;13.52;12.23;;;;;;;17.17;84.02;94415.63;5028594;28;20071;-86
2022/06/11 02:09:04;;;;;;;14.10;12.63;;;;;;;17.00;84.95;94404.81;5001426;28;20041;-87
2022/06/11 02:11:32;;;;;;;;;;;;;;;16.96;85.52;94416.97;5033911;28;20037;-86
2022/06/11 02:14:20;;;;;;;14.85;13.20;;;;;;;17.02;85.66;94413.19;5030674;28;19917;-86
2022/06/11 02:17:08;;;;;;;16.17;13.70;;;;;;;17.07;85.64;94411.28;5000813;28;20037;-86
2022/06/11 02:20:13;;;;;;;16.10;12.80;;;;;;;17.16;85.11;94408.03;5001279;28;20041;-86
2022/06/11 02:22:49;;;;;;;18.85;13.70;;;;;;;17.27;84.85;94415.53;4983162;28;20034;-86
2022/06/11 02:25:18;;;;;;;14.70;13.13;;;;;;;17.29;84.55;94418.66;5035029;28;20107;-85
2022/06/11 02:27:45;;;;;;;14.43;13.10;;;;;;;17.29;84.38;94418.66;4996262;28;20100;-85
2022/06/11 02:30:12;;;;;;;17.02;14.27;;;;;;;17.36;84.44;94418.28;4998249;28;20037;-85
2022/06/11 02:32:37;;;;;;;14.82;13.07;;;;;;;17.47;84.37;94426.81;5022630;28;20489;-86
2022/06/11 02:35:07;;;;;;;14.30;12.68;;;;;;;17.49;83.40;94416.81;5019966;28;20083;-87
2022/06/11 02:37:44;;;;;;;14.77;13.27;;;;;;;17.62;83.48;94421.34;4992085;28;20053;-86
2022/06/11 02:42:40;;;;;;;20.70;14.25;;;;;;;17.76;82.52;94419.59;5038541;22;20048;-86
2022/06/11 02:45:06;;;;;;;18.23;14.15;;;;;;;17.82;82.21;94415.81;5016333;28;20033;-86
2022/06/11 02:47:31;;;;;;;15.30;12.88;;;;;;;17.89;82.02;94415.44;5021692;28;20013;-85
2022/06/11 02:49:57;;;;;;;15.25;13.75;;;;;;;17.96;81.74;94416.66;5027938;28;20048;-85
2022/06/11 02:52:23;;;;;;;15.32;13.82;;;;;;;18.02;81.32;94419.19;5014843;28;20037;-85
2022/06/11 02:54:52;;;;;;;12.60;11.20;;;;;;;17.97;80.93;94418.22;4997785;28;20021;-85
2022/06/11 02:57:24;;;;;;;12.65;10.70;;;;;;;17.92;80.51;94415.69;4997224;28;20029;-85
2022/06/11 02:59:50;;;;;;;;;;;;;;;17.88;80.60;94419.16;4996552;28;20041;-85
2022/06/11 03:02:15;;;;;;;12.30;9.45;;;;;;;17.79;80.06;94426.91;5011944;28;19970;-85
2022/06/11 03:04:41;;;;;;;10.85;9.18;;;;;;;17.73;80.22;94428.03;5000188;23;20564;-85
2022/06/11 03:07:08;;;;;;;10.73;9.70;;;;;;;17.74;80.17;94428.84;4992641;28;20100;-86
2022/06/11 03:09:34;;;;;;;10.23;9.25;;;;;;;17.80;80.05;94427.69;4978353;28;20022;-86
2022/06/11 03:11:59;;;;;;;20.70;14.27;;;;;;;17.81;79.80;94430.03;4997025;28;20136;-86
2022/06/11 03:14:25;;;;;;;18.92;15.18;;;;;;;17.88;79.84;94425.19;4996743;28;20030;-86
2022/06/11 03:16:50;;;;;;;15.55;13.00;;;;;;;17.97;80.45;94428.75;5014640;28;20363;-85
2022/06/11 03:19:20;;;;;;;14.73;12.90;;;;;;;18.00;80.52;94438.69;4998825;28;20107;-85
2022/06/11 03:21:48;;;;;;;13.68;12.27;;;;;;;18.03;80.34;94441.81;5017472;28;20398;-85
2022/06/11 03:24:14;;;;;;;17.02;13.05;;;;;;;18.03;80.56;94441.81;5001972;28;20034;-86
2022/06/11 03:26:40;;;;;;;13.25;11.98;;;;;;;18.06;80.52;94444.66;5001220;28;20169;-85
2022/06/11 03:29:06;;;;;;;14.30;12.93;;;;;;;18.12;80.72;94440.09;4985618;28;20049;-85
2022/06/11 03:31:31;;;;;;;15.40;13.90;;;;;;;18.09;80.34;94438.03;5000839;28;20030;-85
2022/06/11 03:33:57;;;;;;;16.45;13.40;;;;;;;18.12;81.02;94445.34;5001960;28;20026;-85
2022/06/11 03:36:22;;;;;;;17.17;13.27;;;;;;;18.18;80.57;94449.47;5001485;28;20452;-86
2022/06/11 03:38:48;;;;;;;14.20;12.80;;;;;;;18.21;80.39;94443.63;5004008;28;20030;-85
2022/06/11 03:41:14;;;;;;;17.25;13.48;;;;;;;18.26;79.96;94440.94;5047590;22;20039;-85
2022/06/11 03:43:40;;;;;;;16.08;14.38;;;;;;;18.28;80.37;94438.78;5030900;28;20033;-85
2022/06/11 03:46:06;;;;;;;15.50;13.68;;;;;;;18.28;79.54;94444.81;5027067;28;20030;-87
2022/06/11 03:48:32;;;;;;;22.33;14.32;;;;;;;18.32;80.31;94434.50;5003696;28;20030;-86
2022/06/11 03:50:58;;;;;;;20.90;14.38;;;;;;;18.33;79.55;94438.69;5022810;28;20425;-85
2022/06/11 03:53:23;;;;;;;16.95;13.80;;;;;;;18.37;79.59;94441.53;5025975;28;20036;-84
2022/06/11 03:55:49;;;;;;;15.65;14.05;;;;;;;18.32;79.56;94450.28;5008335;28;20030;-87
2022/06/11 03:58:14;;;;;;;20.77;16.25;;;;;;;18.23;79.96;94447.56;5045617;28;20068;-84
2022/06/11 04:03:25;;;;;;;16.92;14.18;;;;;;;18.23;79.71;94447.56;5010557;28;20036;-86
2022/06/11 04:05:52;;;;;;;16.20;13.63;;;;;;;18.28;80.39;94449.31;5023665;28;20025;-85
2022/06/11 04:08:17;;;;;;;14.48;12.98;;;;;;;18.23;79.84;94452.81;5012541;28;20064;-86
2022/06/11 04:10:43;;;;;;;16.42;12.80;;;;;;;18.26;79.39;94448.81;5014558;28;20963;-86
2022/06/11 04:13:09;;;;;;;12.60;11.27;;;;;;;18.27;79.01;94453.78;5032092;28;20091;-85
2022/06/11 04:15:35;;;;;;;19.77;13.63;;;;;;;18.33;79.05;94448.44;5036817;28;20411;-86
2022/06/11 04:18:01;;;;;;;14.70;12.95;;;;;;;18.22;79.48;94450.44;5035174;28;20036;-86
2022/06/11 04:20:26;;;;;;;16.25;13.95;;;;;;;18.11;80.55;94460.38;5019607;28;20069;-83
2022/06/11 04:22:52;;;;;;;15.13;13.52;;;;;;;18.11;80.89;94454.31;5053570;28;20033;-85
2022/06/11 04:25:21;;;;;;;15.77;13.88;;;;;;;18.09;80.52;94459.09;5035780;28;20025;-86
2022/06/11 04:27:47;;;;;;;14.30;12.40;;;;;;;18.11;80.08;94451.69;5019800;28;20042;-86
2022/06/11 04:30:14;;;;;;;14.27;12.77;;;;;;;18.07;80.43;94454.13;5036952;28;20044;-86
2022/06/11 04:32:39;;;;;;;13.85;12.45;;;;;;;18.08;80.57;94455.69;4996922;28;20060;-86
2022/06/11 04:35:05;;;;;;;15.18;13.57;;;;;;;18.11;80.64;94464.84;5000043;28;20041;-86
2022/06/11 04:37:32;;;;;;;14.25;12.88;;;;;;;18.03;80.56;94453.13;5028859;28;20037;-87
2022/06/11 04:39:58;;;;;;;15.75;13.70;;;;;;;17.98;81.47;94453.97;5012647;28;20041;-87
2022/06/11 04:42:25;;;;;;;14.35;12.88;;;;;;;18.03;81.25;94462.84;4989623;28;20038;-87
2022/06/11 04:44:51;;;;;;;14.02;12.43;;;;;;;18.03;80.77;94462.84;5006003;28;20127;-86
2022/06/11 04:47:21;;;;;;;17.50;9.05;;;;;;;17.93;79.46;94479.59;5006657;28;20041;-86
2022/06/11 04:49:47;;;;;;;12.35;11.25;;;;;;;17.90;79.87;94475.69;5006648;28;20067;-86
2022/06/11 04:52:12;;;;;;;9.98;8.98;;;;;;;17.94;79.57;94471.41;5006193;28;20029;-87
2022/06/11 04:54:38;;;;;;;11.07;10.05;;;;;;;17.96;79.69;94487.69;5003335;28;20036;-87
2022/06/11 04:57:04;;;;;;;10.05;9.05;;;;;;;18.03;78.51;94483.91;5013816;28;20037;-86
2022/06/11 04:59:31;;;;;;;9.65;8.75;;;;;;;18.05;78.60;94476.50;5006717;28;20022;-86
2022/06/11 05:01:57;;;;;;;8.77;7.88;;;;;;;18.05;77.97;94489.66;5016350;28;20107;-86
2022/06/11 05:04:23;;;;;;;12.73;8.82;;;;;;;18.08;77.82;94491.75;4998252;28;20108;-87
2022/06/11 05:06:49;;;;;;;10.68;8.38;;;;;;;18.13;78.06;94492.44;4985719;28;20059;-87
2022/06/11 05:09:16;;;;;;;9.85;8.57;;;;;;;18.18;77.47;94494.19;4986768;28;20049;-86
2022/06/11 05:11:42;;;;;;;12.55;9.18;;;;;;;18.20;78.58;94492.06;5020239;28;20029;-86
2022/06/11 05:14:07;;;;;;;10.55;8.57;;;;;;;18.20;78.10;94499.97;4988970;28;20052;-86
2022/06/11 05:16:34;;;;;;;11.50;7.93;;;;;;;18.25;78.17;94497.25;4996418;28;20030;-83
2022/06/11 05:18:59;;;;;;;9.95;7.45;;;;;;;18.34;77.48;94494.75;4988370;28;20041;-86
2022/06/11 05:21:25;;;;;;;7.68;6.93;;;;;;;18.41;76.49;94501.22;5024650;28;20476;-85
2022/06/11 05:23:50;;;;;;;5.55;5.07;;;;;;;18.47;75.18;94505.31;5017823;28;20025;-85
2022/06/11 05:26:18;;;;;;;9.55;7.25;;;;;;;18.50;75.19;94503.97;5008445;28;20117;-85
2022/06/11 05:28:43;;;;;;;8.55;7.18;;;;;;;18.58;75.52;94512.00;5002668;28;20049;-86
2022/06/11 05:31:09;;;;;;;10.23;8.15;;;;;;;18.70;75.46;94513.41;4983064;28;20033;-86
2022/06/11 05:33:34;;;;;;;9.40;8.57;;;;;;;18.77;75.44;94524.34;5015785;28;20036;-86
2022/06/11 05:36:00;;;;;;;9.23;8.07;;;;;;;18.83;75.09;94515.28;5000954;28;20030;-87
2022/06/11 05:38:27;;;;;;;7.18;6.47;;;;;;;18.91;74.81;94512.00;5001806;28;20059;-86
2022/06/11 05:40:53;;;;;;;7.22;6.53;;;;;;;18.98;73.91;94515.00;5017855;28;20037;-87
2022/06/11 05:43:19;;;;;;;9.15;7.40;;;;;;;19.02;74.29;94521.25;5000761;28;20091;-85
2022/06/11 05:46:03;;;;;;;10.15;6.63;;;;;;;19.04;73.07;94511.22;5019496;28;20044;-85
2022/06/11 05:48:35;;;;;;;7.35;6.50;;;;;;;19.09;72.85;94515.63;4988375;28;20630;-85
2022/06/11 05:51:00;;;;;;;7.00;6.40;;;;;;;19.14;73.00;94524.22;4983925;28;20029;-85
2022/06/11 05:53:27;;;;;;;9.32;6.45;;;;;;;19.27;72.81;94521.88;5019071;28;20044;-85
2022/06/11 05:55:53;;;;;;;8.02;7.22;;;;;;;19.34;73.07;94511.72;5003765;28;20481;-86
2022/06/11 05:58:22;;;;;;;8.82;7.18;;;;;;;19.50;73.01;94524.28;5001808;28;20033;-86
2022/06/11 06:00:47;;;;;;;7.75;6.95;;;;;;;19.62;73.21;94525.69;5002353;28;20045;-87
2022/06/11 06:03:13;;;;;;;8.63;7.07;;;;;;;19.71;73.37;94524.72;4987048;28;20025;-86
2022/06/11 06:05:39;;;;;;;7.57;6.88;;;;;;;19.73;72.98;94530.47;5020965;28;20037;-87
2022/06/11 06:08:06;;;;;;;7.38;6.65;;;;;;;19.84;72.60;94524.97;5004850;28;20056;-87
2022/06/11 06:10:31;;;;;;;7.18;6.55;;;;;;;19.88;71.75;94529.38;5002238;28;20600;-86
2022/06/11 06:12:57;;;;;;;8.00;7.10;;;;;;;19.92;71.89;94532.19;5016627;28;20109;-87
2022/06/11 06:15:24;;;;;;;10.75;7.93;;;;;;;19.93;72.19;94531.13;5017323;28;20037;-87
2022/06/11 06:17:50;;;;;;;7.57;6.78;;;;;;;19.92;71.90;94532.97;5001098;28;20669;-86
2022/06/11 06:20:17;;;;;;;8.45;7.47;;;;;;;19.91;71.06;94541.19;4985224;28;20129;-86
2022/06/11 06:22:49;;;;;;;7.20;6.50;;;;;;;19.88;69.73;94539.16;4984645;28;20033;-87
2022/06/11 06:25:16;;;;;;;6.57;6.07;;;;;;;19.75;70.13;94544.16;5035690;28;20026;-85
2022/06/11 06:27:42;;;;;;;7.63;6.68;;;;;;;19.69;70.61;94540.06;5002436;28;20041;-86
2022/06/11 06:30:08;;;;;;;7.53;6.75;;;;;;;19.70;70.98;94541.63;4985913;28;20037;-86
2022/06/11 06:32:34;;;;;;;8.45;7.38;;;;;;;19.69;70.81;94545.34;4985936;28;20044;-86
2022/06/11 06:34:59;;;;;;;8.40;7.63;;;;;;;19.69;71.19;94545.34;5004989;28;20029;-86
2022/06/11 06:37:25;;;;;;;10.35;7.30;;;;;;;19.72;71.14;94547.38;5007108;28;20029;-86
2022/06/11 06:39:50;;;;;;;9.65;8.75;;;;;;;19.75;71.41;94543.38;5019765;28;20040;-86
2022/06/11 06:42:16;;;;;;;8.85;8.05;;;;;;;19.76;71.85;94556.25;4984331;28;20033;-86
2022/06/11 06:44:42;;;;;;;8.63;7.65;;;;;;;19.79;72.02;94553.03;5017549;28;20560;-87
2022/06/11 06:47:07;;;;;;;9.73;8.45;;;;;;;19.93;72.17;94557.50;5000885;28;20087;-86
2022/06/11 06:49:33;;;;;;;9.20;8.13;;;;;;;19.98;71.78;94558.16;5003386;28;20036;-86
2022/06/11 06:51:58;;;;;;;10.13;8.27;;;;;;;20.02;71.69;94553.88;5000633;28;20025;-84
2022/06/11 06:54:24;;;;;;;11.48;8.77;;;;;;;20.04;71.66;94556.22;5001735;28;20026;-84
2022/06/11 06:56:49;;;;;;;14.65;8.95;;;;;;;20.06;71.27;94559.34;5041037;28;20033;-85
2022/06/11 06:59:15;;;;;;;9.63;8.82;;;;;;;20.11;71.49;94556.59;5004579;28;20041;-87
2022/06/11 07:01:40;;;;;;;10.80;8.02;;;;;;;20.17;71.60;94555.38;4988236;28;20103;-85
2022/06/11 07:04:06;;;;;;;13.40;6.97;;;;;;;20.22;70.58;94555.28;5004195;28;20042;-84
2022/06/11 07:06:32;;;;;;;8.55;7.80;;;;;;;20.24;69.17;94553.13;5019772;28;20037;-86
2022/06/11 07:08:58;;;;;;;9.20;8.30;;;;;;;20.28;69.38;94546.16;4986715;28;20116;-84
2022/06/11 07:11:24;;;;;;;10.48;7.10;;;;;;;20.38;69.50;94545.94;4987439;28;20037;-84
2022/06/11 07:13:49;;;;;;;10.50;8.40;;;;;;;20.52;70.01;94545.16;5021250;28;20037;-84
2022/06/11 07:16:17;;;;;;;9.50;8.60;;;;;;;20.71;68.44;94553.66;5020205;28;20030;-85
2022/06/11 07:18:45;;;;;;;8.65;7.75;;;;;;;20.99;68.05;94554.31;5002477;28;20120;-77
2022/06/11 07:21:15;;;;;;;8.80;8.05;;;;;;;21.19;68.13;94561.69;5008929;28;20041;-77
2022/06/11 07:23:43;;;;;;;10.73;7.47;;;;;;;21.30;67.00;94562.22;5007022;28;20060;-79
2022/06/11 07:26:11;;;;;;;7.82;7.10;;;;;;;21.45;65.66;94566.34;5013162;28;20057;-77
2022/06/11 07:28:55;;;;;;;15.80;6.20;;;;;;;21.41;63.59;94571.47;5049996;28;20037;-77
2022/06/11 07:31:21;;;;;;;9.60;7.10;;;;;;;21.26;64.82;94574.50;5050123;28;20021;-79
2022/06/11 07:33:48;;;;;;;8.27;7.53;;;;;;;21.00;65.79;94582.28;5027036;28;20036;-78
2022/06/11 07:36:14;;;;;;;7.20;6.50;;;;;;;20.81;65.54;94585.09;5002902;28;20065;-79
2022/06/11 07:38:40;;;;;;;7.43;6.65;;;;;;;20.70;65.87;94577.75;5018992;28;20034;-79
2022/06/11 07:41:05;;;;;;;5.93;5.38;;;;;;;20.48;66.51;94581.91;5000872;28;20033;-79
2022/06/11 07:43:31;;;;;;;7.75;6.82;;;;;;;20.53;65.74;94588.97;5017137;28;20029;-80
2022/06/11 07:45:57;;;;;;;6.90;6.13;;;;;;;20.62;66.10;94587.16;5021324;28;20126;-78
2022/06/11 07:48:23;;;;;;;5.57;4.80;;;;;;;20.77;65.09;94584.16;4988257;28;20037;-78
2022/06/11 07:50:49;;;;;;;5.13;4.63;;;;;;;21.02;64.37;94582.00;5003984;28;20489;-79
2022/06/11 07:53:15;;;;;;;5.80;5.28;;;;;;;21.31;63.99;94579.66;5036109;28;20033;-79
2022/06/11 07:55:43;;;;;;;10.50;4.65;;;;;;;21.67;62.82;94578.72;5018591;28;20035;-79
2022/06/11 07:58:09;;;;;;;5.45;4.85;;;;;;;22.05;60.25;94590.38;5001822;28;20539;-79
2022/06/11 08:00:37;;;;;;;5.63;4.38;;;;;;;22.35;59.42;94582.63;5023672;28;20031;-79
2022/06/11 08:03:03;;;;;;;4.50;4.20;;;;;;;22.71;58.73;94584.94;5018410;28;20674;-77
2022/06/11 08:05:29;;;;;;;5.15;4.75;;;;;;;22.85;58.83;94590.09;4997740;28;20033;-77
2022/06/11 08:07:54;;;;;;;4.93;3.92;;;;;;;22.85;57.88;94579.50;4982304;28;20033;-78
2022/06/11 08:10:21;;;;;;;5.25;4.65;;;;;;;22.95;58.48;94585.25;4997484;28;20076;-78
2022/06/11 08:12:47;;;;;;;5.28;4.72;;;;;;;23.17;58.24;94586.91;5014809;28;20104;-77
2022/06/11 08:15:12;;;;;;;4.85;4.45;;;;;;;23.33;56.12;94585.31;5015925;28;20033;-78
2022/06/11 08:17:40;;;;;;;9.52;4.47;;;;;;;23.32;56.38;94594.38;4997659;28;20033;-78
2022/06/11 08:20:06;;;;;;;5.45;4.38;;;;;;;23.19;55.44;94590.03;5031297;28;20124;-78
2022/06/11 08:22:32;;;;;;;5.15;4.70;;;;;;;23.07;56.10;94592.56;5013629;28;20037;-78
2022/06/11 08:24:58;;;;;;;4.68;4.28;;;;;;;22.95;56.86;94601.19;4997319;28;20026;-78
2022/06/11 08:27:25;;;;;;;6.80;4.95;;;;;;;22.91;57.15;94594.13;5014143;28;20040;-79
2022/06/11 08:29:50;;;;;;;5.45;4.95;;;;;;;22.90;55.97;94597.88;4996480;28;20038;-79
2022/06/11 08:32:16;;;;;;;4.45;4.05;;;;;;;23.07;54.85;94584.59;5026589;28;20472;-78
2022/06/11 08:34:43;;;;;;;5.50;4.50;;;;;;;23.23;55.12;94585.66;5033588;28;20032;-79
2022/06/11 08:37:09;;;;;;;6.00;4.60;;;;;;;23.40;55.09;94589.34;4998334;28;20033;-79
2022/06/11 08:39:35;;;;;;;4.85;4.45;;;;;;;23.60;53.75;94583.38;5015497;28;20052;-79
2022/06/11 08:42:01;;;;;;;5.70;5.10;;;;;;;23.86;54.57;94576.06;5015979;28;20037;-79
2022/06/11 08:44:27;;;;;;;5.80;4.30;;;;;;;24.04;54.00;94576.72;5004017;28;20052;-78
2022/06/11 08:46:52;;;;;;;9.95;4.55;;;;;;;24.27;53.25;94574.56;5012712;28;20029;-78
2022/06/11 08:49:24;;;;;;;6.10;4.55;;;;;;;24.44;52.43;94579.78;5012002;28;20044;-79
2022/06/11 08:52:22;;;;;;;11.10;4.47;;;;;;;24.68;50.88;94573.00;4999126;28;20429;-79
2022/06/11 08:54:49;;;;;;;4.88;4.38;;;;;;;24.67;49.98;94568.78;5001845;28;20041;-81
2022/06/11 08:57:20;;;;;;;8.00;4.50;;;;;;;24.72;50.17;94574.66;5016566;28;20935;-79
2022/06/11 09:00:08;;;;;;;4.25;3.95;;;;;;;24.82;51.25;94568.19;5032442;28;20032;-79
2022/06/11 09:02:36;;;;;;;4.28;3.88;;;;;;;24.94;50.61;94560.25;4997666;28;20049;-79
2022/06/11 09:05:05;;;;;;;4.78;3.33;;;;;;;24.68;50.60;94563.13;5032932;28;20555;-79
2022/06/11 09:07:50;;;;;;;3.65;3.35;;;;;;;24.81;50.23;94558.66;5030279;28;20060;-79
2022/06/11 09:10:35;;;;;;;3.97;3.58;;;;;;;24.81;49.34;94559.44;5014529;28;20049;-79
2022/06/11 09:13:13;;;;;;;3.28;2.97;;;;;;;25.14;48.57;94558.66;5013775;28;20026;-78
2022/06/11 09:16:01;;;;;;;2.60;2.40;;;;;;;24.86;48.20;94558.44;5032948;28;20040;-79
2022/06/11 09:19:07;;;;;;;6.35;3.20;;;;;;;24.82;49.30;94557.53;5017060;28;20636;-83
2022/06/11 09:21:50;;;;;;;3.13;2.92;;;;;;;24.94;49.54;94554.94;5036712;28;20128;-80
2022/06/11 09:24:25;;;;;;;3.58;3.28;;;;;;;25.06;49.32;94546.25;5022859;28;20111;-82
2022/06/11 09:27:03;;;;;;;3.50;3.20;;;;;;;25.34;50.34;94552.47;5040495;28;20030;-81
2022/06/11 09:29:58;;;;;;;3.97;2.67;;;;;;;24.98;48.38;94555.81;5007694;28;20033;-81
2022/06/11 09:32:28;;;;;;;3.75;3.42;;;;;;;24.96;49.59;94559.91;5017478;28;20119;-79
2022/06/11 09:35:07;;;;;;;6.15;3.13;;;;;;;25.30;49.38;94561.47;5014725;28;20124;-80
2022/06/11 09:37:54;;;;;;;3.88;3.28;;;;;;;25.10;50.18;94561.22;5016040;28;20048;-79
2022/06/11 09:40:35;;;;;;;3.33;3.03;;;;;;;24.56;48.83;94555.09;5033105;28;20029;-79
2022/06/11 09:43:15;;;;;;;2.88;2.30;;;;;;;24.69;47.13;94558.59;5034161;28;20033;-79
2022/06/11 09:46:06;;;;;;;6.93;2.42;;;;;;;24.57;46.37;94566.53;5017242;28;20048;-79
2022/06/11 09:49:01;;;;;;;3.13;2.55;;;;;;;24.51;46.88;94569.38;5002512;28;20057;-81
2022/06/11 09:51:47;;;;;;;3.70;2.65;;;;;;;24.73;47.86;94576.25;5017246;28;20041;-79
2022/06/11 09:54:38;;;;;;;4.50;2.70;;;;;;;25.16;46.96;94571.63;5014811;28;20497;-79
2022/06/11 09:57:20;;;;;;;3.95;3.15;;;;;;;25.51;47.61;94570.13;5032632;28;20041;-79
2022/06/11 10:00:18;;;;;;;3.35;2.45;;;;;;;25.60;45.16;94570.03;4998472;28;20607;-80
2022/06/11 10:06:04;;;;;;;4.18;2.72;;;;;;;24.65;48.70;94563.81;4972990;28;20553;-80
2022/06/11 10:08:40;;;;;;;16.77;3.10;;;;;;;24.47;49.78;94565.81;5024307;28;20041;-80
2022/06/11 10:11:24;;;;;;;3.70;2.90;;;;;;;23.77;51.23;94556.75;5033976;28;20034;-80
2022/06/11 10:13:55;;;;;;;3.50;3.20;;;;;;;23.32;53.65;94559.88;5028334;28;20029;-79
2022/06/11 10:16:35;;;;;;;6.30;2.83;;;;;;;23.36;52.67;94558.13;5042284;28;20033;-80
2022/06/11 10:19:24;;;;;;;8.43;3.30;;;;;;;23.13;54.63;94564.78;5018526;28;20037;-80
2022/06/11 10:22:00;;;;;;;3.20;3.00;;;;;;;22.65;54.86;94570.31;5010828;28;20443;-80
2022/06/11 10:24:27;;;;;;;3.80;3.30;;;;;;;22.10;57.56;94570.88;5033526;28;20042;-80
2022/06/11 10:26:56;;;;;;;10.45;3.90;;;;;;;21.35;60.56;94577.97;4984961;28;20026;-80
2022/06/11 10:29:29;;;;;;;5.78;3.47;;;;;;;20.35;66.09;94599.38;5034409;28;20077;-78
2022/06/11 10:32:14;;;;;;;4.00;3.60;;;;;;;19.55;73.11;94599.94;5026223;28;20044;-81
2022/06/11 10:34:43;;;;;;;6.78;2.85;;;;;;;19.51;72.38;94591.00;5003957;28;20099;-81
2022/06/11 10:37:24;;;;;;;3.97;2.78;;;;;;;19.49;72.48;94593.16;5004453;28;20172;-82
2022/06/11 10:40:02;;;;;;;5.07;2.97;;;;;;;19.46;74.38;94606.94;5023421;28;20493;-82
2022/06/11 10:42:40;;;;;;;4.05;3.65;;;;;;;19.34;75.58;94611.91;5020355;28;20091;-82
2022/06/11 10:45:11;;;;;;;5.70;3.10;;;;;;;19.43;76.47;94615.44;5018268;28;20079;-80
2022/06/11 10:47:39;;;;;;;8.32;3.88;;;;;;;19.42;76.19;94619.16;5034736;28;20029;-82
2022/06/11 10:50:14;;;;;;;6.00;3.75;;;;;;;19.47;77.30;94616.41;5001981;28;20047;-82
2022/06/11 10:53:17;;;;;;;7.47;3.95;;;;;;;19.40;78.15;94621.31;5037322;28;20026;-81
2022/06/11 10:55:57;;;;;;;9.38;4.00;;;;;;;19.23;77.55;94618.44;5036650;28;20037;-80
2022/06/11 10:58:29;;;;;;;4.30;3.72;;;;;;;19.46;77.29;94620.13;4994886;28;20037;-81
2022/06/11 11:00:58;;;;;;;6.28;4.18;;;;;;;19.74;76.53;94621.75;5035752;28;20033;-81
2022/06/11 11:03:37;;;;;;;5.05;3.60;;;;;;;20.13;74.74;94623.06;5018381;28;20044;-81
2022/06/11 11:06:08;;;;;;;3.97;3.50;;;;;;;20.55;73.88;94623.78;5019855;28;20065;-81
2022/06/11 11:08:34;;;;;;;9.35;4.10;;;;;;;20.89;72.69;94618.75;4985621;28;20064;-82
2022/06/11 11:11:00;;;;;;;5.00;3.70;;;;;;;21.16;72.32;94622.34;5018202;28;20029;-81
2022/06/11 11:13:39;;;;;;;5.57;3.65;;;;;;;21.40;71.68;94622.81;5018937;28;20047;-81
2022/06/11 11:16:22;;;;;;;2.83;2.63;;;;;;;21.67;70.55;94621.06;4985454;28;20037;-81
2022/06/11 11:19:03;;;;;;;6.65;2.78;;;;;;;21.91;68.68;94615.38;5035408;28;20037;-80
2022/06/11 11:21:33;;;;;;;9.80;4.72;;;;;;;22.06;68.07;94618.41;5032021;28;20216;-82
2022/06/11 11:24:04;;;;;;;9.63;6.97;;;;;;;22.23;68.18;94616.88;5018794;28;20044;-82
2022/06/11 11:26:35;;;;;;;18.90;12.45;;;;;;;22.42;67.12;94620.00;5018620;28;20022;-82
2022/06/11 11:29:03;;;;;;;12.25;10.75;;;;;;;22.67;66.72;94621.91;5007157;28;20095;-81
2022/06/11 11:31:38;;;;;;;9.15;5.72;;;;;;;22.86;65.69;94612.88;5006120;28;20033;-83
2022/06/11 11:34:11;;;;;;;4.72;3.83;;;;;;;23.05;65.17;94615.97;5004344;28;20876;-83
2022/06/11 11:36:36;;;;;;;4.25;3.88;;;;;;;23.12;62.78;94613.63;5022613;28;20033;-82
2022/06/11 11:39:15;;;;;;;6.93;4.85;;;;;;;23.26;62.87;94608.88;5039722;28;20095;-82
2022/06/11 11:42:02;;;;;;;14.60;9.77;;;;;;;23.38;64.41;94610.09;5020926;28;20488;-82
2022/06/11 11:44:29;;;;;;;14.63;12.43;;;;;;;23.46;64.08;94606.66;5040212;28;20644;-83
2022/06/11 11:47:00;;;;;;;11.23;9.10;;;;;;;23.57;63.29;94610.53;4989653;28;20038;-82
2022/06/11 11:49:28;;;;;;;7.70;5.32;;;;;;;23.70;63.13;94603.47;5015230;28;20029;-82
2022/06/11 11:52:15;;;;;;;6.20;4.70;;;;;;;23.79;61.81;94612.97;5039059;28;20025;-83
2022/06/11 11:54:56;;;;;;;7.82;4.20;;;;;;;24.04;61.93;94597.97;4991215;28;20627;-83
2022/06/11 11:57:23;;;;;;;5.28;4.40;;;;;;;24.31;59.97;94596.75;5001699;28;20033;-83
2022/06/11 11:59:56;;;;;;;5.55;3.83;;;;;;;24.28;58.90;94592.06;4986311;28;20413;-83
2022/06/11 12:02:52;;;;;;;11.45;4.07;;;;;;;24.10;60.23;94591.41;4985608;28;20033;-81